Time;durP1;ratioP1;P1;durP2;ratioP2;P2;SDS_P1;SDS_P2;PMS_P1;PMS_P2;Temp;Humidity;BMP_temperature;BMP_pressure;BME280_temperature;BME280_humidity;BME280_pressure;Samples;Min_cycle;Max_cycle;Signal;HPM_P1;HPM_P2
2022/12/14 00:00:42;;;;;;;6.10;5.30;;;;;;;12.63;62.29;100320.66;4989092;28;20029;-65
2022/12/14 00:03:07;;;;;;;6.50;5.13;;;;;;;12.62;62.46;100327.16;4989344;28;20064;-65
2022/12/14 00:05:33;;;;;;;7.30;5.33;;;;;;;12.64;62.36;100332.34;4988903;28;20044;-65
2022/12/14 00:07:59;;;;;;;7.13;4.97;;;;;;;12.63;62.40;100320.66;4989323;28;20033;-65
2022/12/14 00:10:24;;;;;;;5.73;5.00;;;;;;;12.64;62.59;100322.28;4989034;28;20109;-65
2022/12/14 00:12:49;;;;;;;7.13;5.10;;;;;;;12.63;62.66;100309.78;4989372;28;20037;-65
2022/12/14 00:15:15;;;;;;;6.43;5.40;;;;;;;12.62;62.54;100296.41;4988710;28;20079;-65
2022/12/14 00:17:40;;;;;;;7.03;5.10;;;;;;;12.64;62.72;100295.09;4988720;28;20030;-65
2022/12/14 00:20:07;;;;;;;7.80;5.20;;;;;;;12.63;62.51;100285.31;4987953;28;20041;-65
2022/12/14 00:22:33;;;;;;;6.77;5.40;;;;;;;12.63;62.49;100287.19;4989194;28;20038;-65
2022/12/14 00:24:58;;;;;;;6.67;4.97;;;;;;;12.63;62.61;100293.47;4989040;28;20036;-65
2022/12/14 00:27:23;;;;;;;7.90;5.10;;;;;;;12.62;62.52;100293.69;4989213;28;20136;-65
2022/12/14 00:29:49;;;;;;;5.87;5.00;;;;;;;12.63;62.62;100287.19;4989221;28;20654;-65
2022/12/14 00:32:14;;;;;;;6.50;5.00;;;;;;;12.62;62.71;100286.38;4988657;28;20394;-65
2022/12/14 00:34:39;;;;;;;5.97;5.03;;;;;;;12.61;62.65;100286.63;4987936;28;20044;-65
2022/12/14 00:37:05;;;;;;;8.20;4.90;;;;;;;12.63;62.67;100285.31;4988691;28;20030;-65
2022/12/14 00:39:30;;;;;;;6.00;5.00;;;;;;;12.62;62.67;100282.81;4988003;28;20038;-65
2022/12/14 00:41:56;;;;;;;5.93;5.03;;;;;;;12.60;62.57;100288.50;4970717;28;20035;-65
2022/12/14 00:44:21;;;;;;;8.10;5.10;;;;;;;12.62;62.58;100285.53;4989279;28;20030;-65
2022/12/14 00:46:46;;;;;;;6.00;5.20;;;;;;;12.60;62.77;100277.63;4988192;28;20034;-65
2022/12/14 00:49:12;;;;;;;7.33;5.23;;;;;;;12.62;62.57;100270.06;4988709;28;20088;-65
2022/12/14 00:51:37;;;;;;;6.43;5.40;;;;;;;12.62;62.61;100270.06;4988317;28;20089;-65
2022/12/14 00:54:03;;;;;;;6.97;5.20;;;;;;;12.60;62.59;100255.88;4987700;28;20089;-65
2022/12/14 00:56:28;;;;;;;6.10;5.10;;;;;;;12.60;62.62;100249.63;4988192;28;20038;-65
2022/12/14 00:58:54;;;;;;;6.07;5.07;;;;;;;12.60;62.48;100250.44;4971066;28;20298;-65
2022/12/14 01:01:20;;;;;;;7.80;5.10;;;;;;;12.59;62.46;100247.97;4987812;28;20030;-65
2022/12/14 01:03:46;;;;;;;6.60;5.00;;;;;;;12.61;62.57;100245.88;4987909;28;20449;-65
2022/12/14 01:06:17;;;;;;;5.47;4.87;;;;;;;12.59;62.61;100231.66;4988656;28;20124;-65
2022/12/14 01:08:43;;;;;;;5.97;5.00;;;;;;;12.59;62.60;100231.66;4987498;28;20030;-65
2022/12/14 01:11:09;;;;;;;5.93;4.93;;;;;;;12.60;62.60;100239.59;4988179;28;20046;-65
2022/12/14 01:13:36;;;;;;;6.70;5.30;;;;;;;12.59;62.77;100234.38;4988227;28;20040;-65
2022/12/14 01:16:10;;;;;;;4.97;4.47;;;;;;;12.60;62.80;100234.16;4988275;28;20038;-65
2022/12/14 01:18:37;;;;;;;7.05;5.55;;;;;;;12.61;62.64;100227.66;4988075;28;20481;-65
2022/12/14 01:21:13;;;;;;;6.50;5.00;;;;;;;12.61;62.79;100226.84;4988670;28;20076;-65
2022/12/14 01:23:39;;;;;;;7.27;5.17;;;;;;;12.58;62.47;100224.56;4988102;28;20034;-65
2022/12/14 01:26:04;;;;;;;7.07;5.30;;;;;;;12.58;62.89;100222.72;4987773;28;20513;-65
2022/12/14 01:28:30;;;;;;;6.50;4.97;;;;;;;12.60;62.77;100223.28;4987766;28;20448;-65
2022/12/14 01:30:55;;;;;;;6.93;5.13;;;;;;;12.58;62.64;100220.00;4983998;28;20061;-65
2022/12/14 01:33:20;;;;;;;6.97;5.03;;;;;;;12.57;62.76;100218.31;4985059;28;20116;-65
2022/12/14 01:35:46;;;;;;;7.80;5.50;;;;;;;12.60;62.96;100212.41;4984370;28;20037;-65
2022/12/14 01:38:11;;;;;;;5.90;4.70;;;;;;;12.58;62.79;100214.56;4984806;28;20325;-65
2022/12/14 01:40:36;;;;;;;6.30;4.80;;;;;;;12.58;62.72;100209.13;4984377;28;20038;-65
2022/12/14 01:43:02;;;;;;;6.13;5.20;;;;;;;12.56;62.77;100216.66;4984232;28;21079;-65
2022/12/14 01:45:27;;;;;;;5.37;4.77;;;;;;;12.56;62.83;100222.09;4985222;28;20029;-65
2022/12/14 01:47:57;;;;;;;6.27;4.70;;;;;;;12.56;62.78;100218.56;4985235;28;20122;-65
2022/12/14 01:50:41;;;;;;;6.63;5.03;;;;;;;12.57;63.15;100218.31;4984992;28;20507;-65
2022/12/14 01:53:13;;;;;;;5.43;4.90;;;;;;;12.57;62.77;100212.91;4984275;28;20607;-65
2022/12/14 01:55:43;;;;;;;6.43;4.87;;;;;;;12.57;62.94;100215.59;4983042;28;20038;-65
2022/12/14 01:58:14;;;;;;;6.30;4.70;;;;;;;12.55;62.77;100206.88;4984872;28;20057;-65
2022/12/14 02:00:41;;;;;;;6.03;4.67;;;;;;;12.55;62.77;100215.03;4984054;28;20027;-65
2022/12/14 02:03:14;;;;;;;7.17;4.77;;;;;;;12.54;62.87;100215.25;4978331;28;20148;-65
2022/12/14 02:05:45;;;;;;;4.93;4.40;;;;;;;12.55;62.64;100211.47;4984556;28;20030;-65
2022/12/14 02:08:11;;;;;;;5.00;4.50;;;;;;;12.54;62.97;100207.94;4972570;28;20545;-65
2022/12/14 02:10:36;;;;;;;5.73;4.97;;;;;;;12.52;62.86;100199.19;4986278;28;20133;-65
2022/12/14 02:13:18;;;;;;;5.90;4.73;;;;;;;12.55;63.15;100193.31;4987284;28;20038;-65
2022/12/14 02:15:44;;;;;;;6.40;4.70;;;;;;;12.53;62.87;100189.16;4987571;28;20030;-65
2022/12/14 02:18:17;;;;;;;6.20;4.90;;;;;;;12.52;63.01;100185.63;4986612;28;20037;-65
2022/12/14 02:21:11;;;;;;;5.10;4.53;;;;;;;12.55;63.28;100193.31;4986903;28;20116;-65
2022/12/14 02:23:58;;;;;;;5.45;4.60;;;;;;;12.55;62.92;100189.75;4986725;28;20033;-65
2022/12/14 02:26:36;;;;;;;5.30;4.53;;;;;;;12.54;62.94;100186.22;4986389;28;20050;-65
2022/12/14 02:29:35;;;;;;;5.37;4.70;;;;;;;12.55;63.38;100179.72;4986563;28;20045;-65
2022/12/14 02:32:19;;;;;;;5.73;4.70;;;;;;;12.55;62.93;100181.59;4986861;28;20041;-65
2022/12/14 02:35:10;;;;;;;5.50;4.90;;;;;;;12.56;63.34;100181.34;4987152;28;20068;-65
2022/12/14 02:37:54;;;;;;;6.40;4.50;;;;;;;12.54;63.17;100172.63;4987028;28;20607;-65
2022/12/14 02:40:43;;;;;;;5.25;4.60;;;;;;;12.53;63.45;100164.72;4986911;28;20054;-65
2022/12/14 02:43:25;;;;;;;5.50;4.77;;;;;;;12.49;63.06;100162.47;4986232;28;20030;-65
2022/12/14 02:46:00;;;;;;;6.40;5.10;;;;;;;12.52;63.11;100172.03;4986590;28;20053;-65
2022/12/14 02:48:31;;;;;;;6.07;4.90;;;;;;;12.49;63.10;100169.78;4986210;28;20084;-65
2022/12/14 02:51:12;;;;;;;5.33;4.80;;;;;;;12.50;63.06;100168.75;4986654;28;20397;-65
2022/12/14 02:53:45;;;;;;;6.73;4.70;;;;;;;12.49;63.12;100177.94;4986453;28;20058;-65
2022/12/14 02:56:17;;;;;;;6.40;4.73;;;;;;;12.48;62.95;100174.41;4986994;28;20119;-65
2022/12/14 02:58:49;;;;;;;5.77;4.67;;;;;;;12.49;62.90;100177.94;4987215;28;20026;-65
2022/12/14 03:01:18;;;;;;;6.00;4.60;;;;;;;12.48;62.99;100179.00;4986865;28;20141;-65
2022/12/14 03:03:44;;;;;;;6.23;4.60;;;;;;;12.49;63.11;100186.09;4986922;28;20113;-65
2022/12/14 03:06:14;;;;;;;5.20;4.67;;;;;;;12.47;62.95;100171.91;4988053;28;20034;-65
2022/12/14 03:08:42;;;;;;;6.27;4.77;;;;;;;12.48;63.29;100168.13;4990366;28;20651;-65
2022/12/14 03:11:10;;;;;;;5.97;4.83;;;;;;;12.46;63.00;100167.56;4989742;28;20034;-65
2022/12/14 03:13:45;;;;;;;5.83;4.70;;;;;;;12.48;62.99;100165.41;4990579;28;20030;-65
2022/12/14 03:16:12;;;;;;;;;;;;;;;12.57;64.01;100163.16;4982707;28;20034;-65
2022/12/14 03:18:44;;;;;;;5.33;4.73;;;;;;;12.47;63.09;100161.88;4989589;28;20281;-65
2022/12/14 03:21:12;;;;;;;5.57;4.67;;;;;;;12.48;63.19;100163.56;4982851;28;20077;-65
2022/12/14 03:23:41;;;;;;;6.60;4.90;;;;;;;12.47;63.20;100163.75;4989022;28;20068;-65
2022/12/14 03:26:15;;;;;;;5.27;4.60;;;;;;;12.46;63.21;100162.94;4989343;28;20065;-65
2022/12/14 03:28:44;;;;;;;5.90;4.90;;;;;;;12.49;63.13;100158.94;4989014;28;20647;-65
2022/12/14 03:31:37;;;;;;;5.73;4.93;;;;;;;12.48;63.41;100160.84;4990381;28;20037;-65
2022/12/14 03:34:07;;;;;;;6.73;5.03;;;;;;;12.47;63.14;100153.75;4981223;28;20084;-65
2022/12/14 03:36:42;;;;;;;5.50;4.70;;;;;;;12.47;62.92;100147.47;4989453;28;20081;-65
2022/12/14 03:39:14;;;;;;;5.80;4.50;;;;;;;12.45;63.19;100136.03;4990173;28;20030;-65
2022/12/14 03:41:47;;;;;;;6.00;4.63;;;;;;;12.45;63.22;100134.13;4990202;28;20416;-65
2022/12/14 03:44:21;;;;;;;6.13;4.63;;;;;;;12.43;63.21;100136.28;4990491;28;20034;-65
2022/12/14 03:47:07;;;;;;;6.15;4.70;;;;;;;12.44;63.06;100131.66;4989033;28;20125;-65
2022/12/14 03:49:51;;;;;;;5.00;4.50;;;;;;;12.47;63.67;100128.44;4989615;28;20038;-65
2022/12/14 03:52:38;;;;;;;6.32;4.88;;;;;;;12.47;63.62;100129.28;4989554;28;20037;-65
2022/12/14 03:55:33;;;;;;;6.17;4.73;;;;;;;12.47;63.72;100121.13;4989291;28;20456;-65
2022/12/14 03:58:20;;;;;;;6.03;4.80;;;;;;;12.43;62.88;100111.81;4980474;28;20397;-65
2022/12/14 04:01:07;;;;;;;5.13;4.53;;;;;;;12.46;63.53;100118.66;4989837;28;20468;-65
2022/12/14 04:04:01;;;;;;;5.30;4.53;;;;;;;12.44;63.31;100113.47;4989565;28;21563;-65
2022/12/14 04:06:37;;;;;;;5.17;4.50;;;;;;;12.43;63.03;100108.25;4989675;28;20180;-65
2022/12/14 04:09:27;;;;;;;5.00;4.30;;;;;;;12.43;63.52;100105.53;4989165;28;20410;-65
2022/12/14 04:20:41;;;;;;;5.63;4.60;;;;;;;12.39;63.43;100091.63;4989292;28;20072;-65
2022/12/14 04:26:16;;;;;;;5.73;4.70;;;;;;;12.38;63.13;100081.03;4988905;28;20124;-65
2022/12/14 04:31:39;;;;;;;5.53;4.68;;;;;;;12.39;63.08;100088.09;4989211;28;20134;-65
2022/12/14 04:34:06;;;;;;;5.20;4.67;;;;;;;12.36;63.05;100075.00;4988493;28;20038;-65
2022/12/14 04:36:45;;;;;;;5.10;4.43;;;;;;;12.37;63.30;100073.94;4987834;28;20117;-65
2022/12/14 04:39:17;;;;;;;5.10;4.57;;;;;;;12.38;63.21;100073.69;4989671;28;20038;-65
2022/12/14 04:41:47;;;;;;;5.10;4.60;;;;;;;12.38;63.08;100070.97;4989040;28;20091;-65
2022/12/14 04:44:24;;;;;;;5.83;4.30;;;;;;;12.38;63.24;100070.97;4987684;28;20025;-65
2022/12/14 04:46:53;;;;;;;5.23;4.50;;;;;;;12.37;63.02;100065.78;4987534;28;20069;-65
2022/12/14 04:50:07;;;;;;;5.83;4.50;;;;;;;12.40;63.79;100057.97;4988834;28;20068;-65
2022/12/14 04:52:44;;;;;;;5.60;4.70;;;;;;;12.39;63.34;100060.91;4983850;28;20068;-65
2022/12/14 04:55:24;;;;;;;5.00;4.27;;;;;;;12.38;63.15;100064.72;4987923;28;20030;-65
2022/12/14 04:58:18;;;;;;;5.00;4.50;;;;;;;12.40;63.65;100059.84;4988082;28;20034;-65
2022/12/14 05:00:59;;;;;;;5.13;4.50;;;;;;;12.41;63.68;100058.78;4970873;28;20185;-65
2022/12/14 05:03:33;;;;;;;5.20;4.70;;;;;;;12.41;63.58;100047.94;4988255;28;20700;-65
2022/12/14 05:06:09;;;;;;;5.32;4.30;;;;;;;12.41;63.64;100053.34;4988406;28;20037;-65
2022/12/14 05:08:57;;;;;;;5.77;4.40;;;;;;;12.39;63.56;100044.63;4987559;28;20037;-65
2022/12/14 05:12:05;;;;;;;5.40;4.20;;;;;;;12.40;63.85;100038.97;4988589;28;20156;-65
2022/12/14 05:14:46;;;;;;;5.70;4.43;;;;;;;12.39;63.66;100040.03;4987708;28;21898;-64
2022/12/14 05:17:13;;;;;;;6.27;4.17;;;;;;;12.38;63.46;100034.84;4988428;28;20046;-65
2022/12/14 05:19:49;;;;;;;6.10;4.80;;;;;;;12.37;63.53;100034.00;4987037;28;20541;-65
2022/12/14 05:22:14;;;;;;;5.83;4.47;;;;;;;12.34;63.24;100045.34;4987875;28;20124;-65
2022/12/14 05:24:40;;;;;;;5.67;4.40;;;;;;;12.33;63.33;100036.41;4988140;28;20041;-65
2022/12/14 05:27:05;;;;;;;5.63;4.20;;;;;;;12.36;63.54;100037.78;4987417;28;20095;-65
2022/12/14 05:29:31;;;;;;;6.80;4.40;;;;;;;12.35;63.55;100025.28;4987107;28;20398;-65
2022/12/14 05:31:56;;;;;;;5.80;4.30;;;;;;;12.36;63.69;100028.81;4987836;28;20053;-64
2022/12/14 05:34:22;;;;;;;5.50;4.40;;;;;;;12.35;63.68;100029.88;4987782;28;20125;-65
2022/12/14 05:36:47;;;;;;;5.90;4.30;;;;;;;12.35;63.60;100025.28;4988445;28;20064;-65
2022/12/14 05:39:14;;;;;;;6.03;4.13;;;;;;;12.34;63.58;100029.06;4987671;28;20667;-65
2022/12/14 05:41:39;;;;;;;5.13;4.27;;;;;;;12.33;63.67;100028.25;4987399;28;20034;-65
2022/12/14 05:44:05;;;;;;;5.20;4.20;;;;;;;12.33;63.69;100021.97;4986844;28;20027;-65
2022/12/14 05:46:30;;;;;;;4.60;4.10;;;;;;;12.32;63.81;100026.59;4987634;28;20097;-65
2022/12/14 05:48:55;;;;;;;5.23;4.20;;;;;;;12.33;63.73;100021.97;4986713;28;20038;-65
2022/12/14 05:51:21;;;;;;;5.10;4.30;;;;;;;12.32;63.79;100023.88;4987767;28;20037;-64
2022/12/14 05:53:46;;;;;;;5.37;4.20;;;;;;;12.29;63.72;100024.38;4988334;28;20030;-65
2022/12/14 05:56:11;;;;;;;4.70;4.10;;;;;;;12.32;63.76;100029.31;4987703;28;20480;-65
2022/12/14 05:58:37;;;;;;;4.80;4.30;;;;;;;12.32;63.86;100023.03;4986996;28;20030;-65
2022/12/14 06:01:06;;;;;;;5.47;4.40;;;;;;;12.31;63.67;100026.84;4987024;28;20026;-65
2022/12/14 06:03:31;;;;;;;4.70;4.10;;;;;;;12.29;63.86;100016.22;4987315;28;20061;-65
2022/12/14 06:06:04;;;;;;;4.93;4.20;;;;;;;12.30;63.82;100017.84;4986879;28;20121;-65
2022/12/14 06:08:34;;;;;;;5.13;4.10;;;;;;;12.30;63.86;100023.28;4986054;28;20046;-64
2022/12/14 06:11:09;;;;;;;4.57;4.03;;;;;;;12.29;63.97;100010.78;4986873;28;20159;-64
2022/12/14 06:13:35;;;;;;;5.97;4.30;;;;;;;12.29;63.62;100012.66;4987053;28;20173;-65
2022/12/14 06:16:07;;;;;;;5.83;4.20;;;;;;;12.30;63.81;100008.88;4987360;28;20438;-65
2022/12/14 06:18:32;;;;;;;4.93;4.10;;;;;;;12.30;63.67;100012.41;4987561;28;20030;-65
2022/12/14 06:20:57;;;;;;;5.20;4.40;;;;;;;12.29;63.59;100012.66;4986699;28;21506;-65
2022/12/14 06:23:23;;;;;;;5.23;4.40;;;;;;;12.27;63.89;100010.19;4986709;28;20140;-65
2022/12/14 06:25:53;;;;;;;4.73;4.10;;;;;;;12.28;63.93;100013.72;4987619;28;20841;-65
2022/12/14 06:28:18;;;;;;;4.40;4.00;;;;;;;12.28;63.95;100011.00;4986996;28;20038;-65
2022/12/14 06:30:46;;;;;;;4.20;3.80;;;;;;;12.26;63.77;100010.44;4986553;28;20588;-65
2022/12/14 06:33:11;;;;;;;5.10;4.07;;;;;;;12.25;63.90;100008.78;4986443;28;20029;-65
2022/12/14 06:35:41;;;;;;;5.10;4.20;;;;;;;12.27;63.67;100012.09;4986211;28;20155;-65
2022/12/14 06:38:06;;;;;;;5.73;4.30;;;;;;;12.25;63.75;100014.22;4986144;28;20030;-65
2022/12/14 06:40:31;;;;;;;5.47;4.20;;;;;;;12.24;63.81;100005.25;4988899;28;20375;-64
2022/12/14 06:42:57;;;;;;;4.83;4.23;;;;;;;12.24;63.87;100026.13;4990224;28;20089;-65
2022/12/14 06:45:22;;;;;;;4.90;4.30;;;;;;;12.22;63.87;100031.81;4979498;28;20065;-62
2022/12/14 06:47:47;;;;;;;6.27;4.30;;;;;;;12.24;63.75;100020.72;4991152;28;20044;-62
2022/12/14 06:50:13;;;;;;;4.53;4.10;;;;;;;12.23;63.68;100019.91;4991498;28;20116;-62
2022/12/14 06:52:38;;;;;;;4.30;3.90;;;;;;;12.21;63.94;100022.03;4990456;28;20030;-62
2022/12/14 06:55:04;;;;;;;4.80;4.37;;;;;;;12.24;63.93;100018.00;4991040;28;20048;-62
2022/12/14 06:57:29;;;;;;;4.30;3.90;;;;;;;12.21;63.87;100016.63;4990542;28;20052;-62
2022/12/14 06:59:55;;;;;;;5.33;4.13;;;;;;;12.21;63.98;100024.75;4990402;28;20040;-62
2022/12/14 07:02:20;;;;;;;4.70;4.20;;;;;;;12.22;63.85;100023.66;4991388;28;20042;-62
2022/12/14 07:04:45;;;;;;;4.33;3.93;;;;;;;12.23;64.07;100030.75;4990010;28;20054;-62
2022/12/14 07:07:11;;;;;;;4.27;3.80;;;;;;;12.21;64.03;100030.19;4989671;28;20129;-62
2022/12/14 07:09:37;;;;;;;4.53;4.00;;;;;;;12.23;64.28;100041.63;4990365;28;20042;-61
2022/12/14 07:12:02;;;;;;;4.53;4.10;;;;;;;12.25;64.27;100042.22;4990367;28;20034;-62
2022/12/14 07:14:28;;;;;;;5.43;4.20;;;;;;;12.26;64.00;100041.13;4990540;28;20092;-62
2022/12/14 07:16:53;;;;;;;4.93;4.00;;;;;;;12.27;64.13;100026.50;4989880;28;20069;-62
2022/12/14 07:19:18;;;;;;;6.57;4.10;;;;;;;12.27;63.95;100040.06;4990836;28;20060;-62
2022/12/14 07:21:44;;;;;;;5.00;4.33;;;;;;;12.30;63.75;100036.03;4989980;28;20061;-62
2022/12/14 07:24:09;;;;;;;5.57;4.13;;;;;;;12.30;63.61;100036.84;4989466;28;20072;-62
2022/12/14 07:26:36;;;;;;;7.37;4.57;;;;;;;12.28;63.31;100025.44;4989655;28;20068;-62
2022/12/14 07:29:01;;;;;;;6.33;4.50;;;;;;;12.30;63.31;100027.91;4989724;28;20074;-62
2022/12/14 07:31:28;;;;;;;9.77;4.50;;;;;;;12.31;63.22;100038.50;4989747;28;20121;-62
2022/12/14 07:33:55;;;;;;;6.20;4.50;;;;;;;12.33;63.05;100033.69;4989398;28;20041;-62
2022/12/14 07:36:22;;;;;;;7.00;4.53;;;;;;;12.39;62.85;100039.19;4989990;28;20096;-62
2022/12/14 07:38:49;;;;;;;7.43;4.33;;;;;;;12.37;62.75;100025.84;4988567;28;20030;-62
2022/12/14 07:41:20;;;;;;;5.83;4.00;;;;;;;12.35;62.91;100046.16;4990407;28;20044;-62
2022/12/14 07:43:46;;;;;;;5.13;4.00;;;;;;;12.37;62.86;100027.75;4989292;28;20034;-62
2022/12/14 07:46:17;;;;;;;6.47;4.33;;;;;;;12.40;62.81;100029.97;4988889;28;20030;-62
2022/12/14 07:48:48;;;;;;;7.50;4.10;;;;;;;12.41;62.75;100032.44;4989343;28;20041;-62
2022/12/14 07:51:15;;;;;;;7.13;4.27;;;;;;;12.44;62.66;100045.56;4989387;28;20034;-62
2022/12/14 07:53:41;;;;;;;6.93;3.90;;;;;;;12.46;62.46;100048.84;4989068;28;20071;-62
2022/12/14 07:56:15;;;;;;;6.20;3.90;;;;;;;12.54;62.56;100049.50;4988798;28;20045;-62
2022/12/14 07:58:40;;;;;;;8.00;3.97;;;;;;;12.60;62.04;100053.97;4989410;28;20505;-63
2022/12/14 08:01:09;;;;;;;5.77;4.30;;;;;;;12.65;62.09;100051.34;4971517;28;20034;-63
2022/12/14 08:03:34;;;;;;;6.60;3.93;;;;;;;12.68;61.76;100052.75;4990477;28;20038;-63
2022/12/14 08:06:03;;;;;;;5.57;4.33;;;;;;;12.70;61.87;100062.31;4991102;28;20065;-63
2022/12/14 08:08:29;;;;;;;5.80;3.90;;;;;;;12.74;61.67;100054.47;4989812;28;20068;-63
2022/12/14 08:10:54;;;;;;;5.93;3.83;;;;;;;12.84;61.51;100052.75;4989601;28;20033;-63
2022/12/14 08:13:19;;;;;;;5.07;4.00;;;;;;;12.85;61.30;100048.13;4990725;28;20124;-63
2022/12/14 08:15:45;;;;;;;5.47;3.80;;;;;;;12.92;61.13;100062.41;4990686;28;20160;-63
2022/12/14 08:18:10;;;;;;;7.33;4.07;;;;;;;12.93;61.31;100064.06;4989161;28;20066;-64
2022/12/14 08:20:35;;;;;;;8.00;4.10;;;;;;;13.01;61.05;100062.81;4989948;28;20044;-64
2022/12/14 08:23:01;;;;;;;5.57;3.80;;;;;;;12.99;60.89;100067.69;4990258;28;20104;-64
2022/12/14 08:25:26;;;;;;;6.77;4.17;;;;;;;13.00;60.81;100059.28;4989228;28;20034;-64
2022/12/14 08:27:51;;;;;;;6.73;4.00;;;;;;;13.07;60.98;100061.84;4988526;28;20072;-64
2022/12/14 08:30:17;;;;;;;5.13;3.90;;;;;;;13.12;60.97;100071.97;4988699;28;20545;-64
2022/12/14 08:32:42;;;;;;;5.73;3.77;;;;;;;13.10;60.69;100068.69;4985823;28;20045;-64
2022/12/14 08:35:08;;;;;;;9.50;4.17;;;;;;;13.14;60.76;100069.81;4986147;28;20528;-64
2022/12/14 08:37:33;;;;;;;4.73;3.70;;;;;;;13.16;60.63;100073.13;4985358;28;20044;-64
2022/12/14 08:39:58;;;;;;;5.40;3.80;;;;;;;13.21;60.67;100065.03;4985635;28;20903;-64
2022/12/14 08:42:24;;;;;;;8.60;4.20;;;;;;;13.21;60.31;100066.94;4985255;28;20375;-64
2022/12/14 08:44:49;;;;;;;6.30;3.77;;;;;;;13.17;60.47;100066.59;4986341;28;20104;-64
2022/12/14 08:47:14;;;;;;;5.03;3.80;;;;;;;13.24;60.51;100063.72;4986575;28;20429;-64
2022/12/14 08:49:40;;;;;;;5.83;3.90;;;;;;;13.28;60.23;100065.69;4984791;28;20023;-64
2022/12/14 08:52:05;;;;;;;7.10;4.10;;;;;;;13.26;60.23;100062.41;4985951;28;20556;-64
2022/12/14 08:54:30;;;;;;;7.00;4.40;;;;;;;13.23;60.14;100070.22;4984723;28;20125;-64
2022/12/14 08:56:56;;;;;;;6.47;3.90;;;;;;;13.29;60.11;100064.63;4985949;28;20113;-64
2022/12/14 08:59:21;;;;;;;6.40;3.90;;;;;;;13.31;60.06;100073.38;4984734;28;20097;-64
2022/12/14 09:01:47;;;;;;;5.90;3.90;;;;;;;13.31;60.13;100075.25;4987448;28;20501;-64
2022/12/14 09:04:12;;;;;;;4.83;3.60;;;;;;;13.31;59.88;100070.66;4988440;28;20034;-64
2022/12/14 09:06:38;;;;;;;6.50;4.13;;;;;;;13.33;59.79;100073.13;4988826;28;20478;-64
2022/12/14 09:09:06;;;;;;;4.67;3.57;;;;;;;13.37;59.79;100073.44;4988529;28;20027;-64
2022/12/14 09:11:31;;;;;;;5.17;3.80;;;;;;;13.39;59.58;100071.31;4988355;28;20042;-64
2022/12/14 09:13:57;;;;;;;6.80;4.00;;;;;;;13.33;59.64;100071.19;4987753;28;20117;-64
2022/12/14 09:16:25;;;;;;;5.87;3.90;;;;;;;13.31;59.58;100076.09;4989348;28;20039;-64
2022/12/14 09:18:50;;;;;;;4.90;3.73;;;;;;;13.37;59.39;100081.63;4988910;28;20041;-64
2022/12/14 09:21:16;;;;;;;5.43;3.90;;;;;;;13.38;59.45;100080.53;4987607;28;20537;-64
2022/12/14 09:23:42;;;;;;;6.23;3.93;;;;;;;13.34;59.41;100086.47;4987577;28;20485;-64
2022/12/14 09:26:11;;;;;;;5.70;3.87;;;;;;;13.34;59.34;100086.47;4988126;28;20037;-64
2022/12/14 09:28:39;;;;;;;6.10;3.57;;;;;;;13.36;59.33;100088.16;4987575;28;20450;-64
2022/12/14 09:31:09;;;;;;;6.00;3.80;;;;;;;13.33;59.36;100089.44;4988089;28;20034;-64
2022/12/14 09:33:35;;;;;;;5.33;3.80;;;;;;;13.29;59.24;100089.09;4989245;28;20144;-64
2022/12/14 09:36:22;;;;;;;6.00;3.63;;;;;;;13.29;60.25;100088.28;4988615;28;20199;-64
2022/12/14 09:38:53;;;;;;;5.37;3.80;;;;;;;13.28;59.44;100086.63;4988835;28;20030;-64
2022/12/14 09:41:23;;;;;;;5.07;3.90;;;;;;;13.20;59.44;100082.41;4988639;28;20065;-64
2022/12/14 09:44:24;;;;;;;5.77;3.80;;;;;;;13.18;59.85;100076.41;4988814;28;20045;-64
2022/12/14 09:47:13;;;;;;;4.83;4.00;;;;;;;13.16;60.16;100081.28;4987943;28;20061;-64
2022/12/14 09:49:54;;;;;;;4.93;3.43;;;;;;;13.11;60.04;100086.63;4987653;28;20069;-64
2022/12/14 09:52:24;;;;;;;5.80;3.57;;;;;;;13.08;59.48;100087.13;4989259;28;20034;-64
2022/12/14 09:54:52;;;;;;;5.90;4.33;;;;;;;13.07;59.42;100086.31;4988350;28;20060;-64
2022/12/14 09:57:28;;;;;;;5.70;3.60;;;;;;;13.08;59.77;100087.13;4987969;28;20038;-64
2022/12/14 09:59:53;;;;;;;5.83;3.70;;;;;;;13.06;59.59;100081.94;4987928;28;20033;-64
2022/12/14 10:02:28;;;;;;;4.73;3.63;;;;;;;13.04;59.33;100075.94;4988655;28;20111;-64
2022/12/14 10:05:25;;;;;;;4.87;3.50;;;;;;;13.06;60.22;100075.69;4987869;28;20030;-64
2022/12/14 10:07:58;;;;;;;4.07;3.60;;;;;;;13.01;59.46;100068.25;4988660;28;20379;-64
2022/12/14 10:10:47;;;;;;;4.43;3.40;;;;;;;13.01;59.70;100070.97;4987567;28;20525;-64
2022/12/14 10:13:41;;;;;;;5.13;3.47;;;;;;;13.02;60.03;100063.66;4981263;28;20121;-64
2022/12/14 10:16:21;;;;;;;4.47;3.70;;;;;;;13.00;59.98;100074.75;4978973;28;20034;-64
2022/12/14 10:19:20;;;;;;;5.47;3.70;;;;;;;12.99;60.21;100073.13;4987280;28;20045;-64
2022/12/14 10:21:56;;;;;;;4.27;3.60;;;;;;;12.97;59.83;100062.50;4987462;28;20092;-64
2022/12/14 10:24:26;;;;;;;5.23;3.73;;;;;;;12.92;59.65;100062.41;4987273;28;20046;-64
2022/12/14 10:26:53;;;;;;;4.50;3.90;;;;;;;12.92;59.57;100078.72;4987149;28;20050;-64
2022/12/14 10:29:52;;;;;;;5.53;3.90;;;;;;;12.94;59.83;100076.56;4986624;28;20032;-64
2022/12/14 10:32:29;;;;;;;3.83;3.40;;;;;;;12.90;59.71;100077.31;4976244;28;20057;-64
2022/12/14 10:34:54;;;;;;;4.87;3.80;;;;;;;12.87;59.60;100075.09;4986811;28;20113;-64
2022/12/14 10:37:30;;;;;;;4.87;3.50;;;;;;;12.85;59.69;100078.03;4987645;28;20425;-64
2022/12/14 10:40:03;;;;;;;5.20;3.50;;;;;;;12.83;59.91;100093.78;4986429;28;20041;-64
2022/12/14 10:42:47;;;;;;;4.93;3.37;;;;;;;12.87;60.34;100091.41;4986919;28;20402;-64
2022/12/14 10:45:35;;;;;;;4.20;3.43;;;;;;;12.85;59.88;100086.19;4987397;28;20038;-64
2022/12/14 10:48:30;;;;;;;4.37;3.70;;;;;;;12.87;60.44;100081.34;4987465;28;20685;-64
2022/12/14 10:51:34;;;;;;;5.63;3.80;;;;;;;12.87;60.33;100080.53;4987528;28;20120;-64
2022/12/14 10:54:09;;;;;;;5.43;3.80;;;;;;;12.82;59.96;100090.25;4987416;28;20030;-64
2022/12/14 10:56:39;;;;;;;5.10;3.80;;;;;;;12.80;59.67;100077.97;4987821;28;20145;-64
2022/12/14 10:59:17;;;;;;;3.90;3.50;;;;;;;12.83;60.11;100080.19;4987104;28;21785;-64
2022/12/14 11:01:48;;;;;;;3.67;3.17;;;;;;;12.82;59.63;100084.81;4986954;28;20108;-64
2022/12/14 11:04:34;;;;;;;7.37;4.00;;;;;;;12.84;61.93;100076.41;4987687;28;20122;-64
2022/12/14 11:07:08;;;;;;;9.07;4.10;;;;;;;12.84;61.77;100076.41;4987484;28;20061;-64
2022/12/14 11:09:35;;;;;;;7.28;3.58;;;;;;;12.84;61.37;100076.41;4986796;28;20109;-64
2022/12/14 11:12:05;;;;;;;6.63;4.33;;;;;;;12.80;61.29;100070.63;4986758;28;20038;-64
2022/12/14 11:14:31;;;;;;;7.57;4.00;;;;;;;12.79;61.38;100076.31;4987279;28;20116;-64
2022/12/14 11:16:56;;;;;;;7.10;3.80;;;;;;;12.78;61.17;100083.66;4986788;28;20085;-64
2022/12/14 11:19:24;;;;;;;7.93;3.67;;;;;;;12.77;61.21;100075.72;4987919;28;20630;-64
2022/12/14 11:22:18;;;;;;;8.20;3.80;;;;;;;12.78;61.57;100080.09;4987796;28;20041;-63
2022/12/14 11:24:46;;;;;;;7.38;3.88;;;;;;;12.75;61.41;100084.13;4986418;28;20071;-63
2022/12/14 11:27:17;;;;;;;8.17;3.73;;;;;;;12.75;61.53;100095.00;4986520;28;20054;-63
2022/12/14 11:29:46;;;;;;;8.17;3.73;;;;;;;12.74;61.39;100089.81;4989835;28;20050;-63
2022/12/14 11:32:23;;;;;;;8.60;3.83;;;;;;;12.75;61.75;100077.88;4990961;28;20120;-63
2022/12/14 11:34:55;;;;;;;6.63;3.80;;;;;;;12.69;61.55;100076.13;4990082;28;20027;-63
2022/12/14 11:37:31;;;;;;;5.97;3.80;;;;;;;12.71;61.31;100077.53;4990672;28;20651;-63
2022/12/14 11:40:00;;;;;;;6.30;3.83;;;;;;;12.70;61.32;100083.22;4990854;28;20088;-63
2022/12/14 11:42:26;;;;;;;7.13;4.10;;;;;;;12.67;61.32;100076.38;4990932;28;20956;-63
2022/12/14 11:44:52;;;;;;;6.47;3.80;;;;;;;12.64;61.21;100077.69;4990404;28;20030;-63
2022/12/14 11:47:25;;;;;;;7.63;3.70;;;;;;;12.64;61.34;100085.03;4990519;28;20022;-63
2022/12/14 11:49:53;;;;;;;7.87;3.70;;;;;;;12.60;61.19;100071.09;4991173;28;20433;-63
2022/12/14 11:52:24;;;;;;;7.33;4.10;;;;;;;12.61;61.38;100070.03;4990993;28;20030;-63
2022/12/14 11:54:55;;;;;;;7.23;3.80;;;;;;;12.62;61.18;100068.97;4990509;28;20074;-63
2022/12/14 11:57:25;;;;;;;7.23;3.80;;;;;;;12.59;61.37;100068.63;4990683;28;20565;-63